sensor_id;sensor_type;location;lat;lon;timestamp;P1;durP1;ratioP1;P2;durP2;ratioP2
41693;SDS011;27377;50.666;9.150;2022-12-29T00:02:08;7.13;;;2.28;;
41693;SDS011;27377;50.666;9.150;2022-12-29T00:04:34;4.50;;;2.38;;
41693;SDS011;27377;50.666;9.150;2022-12-29T00:07:00;4.97;;;2.33;;
41693;SDS011;27377;50.666;9.150;2022-12-29T00:09:25;4.67;;;2.30;;
41693;SDS011;27377;50.666;9.150;2022-12-29T00:11:51;6.53;;;2.33;;
41693;SDS011;27377;50.666;9.150;2022-12-29T00:14:17;5.47;;;2.25;;
41693;SDS011;27377;50.666;9.150;2022-12-29T00:17:01;4.65;;;2.10;;
41693;SDS011;27377;50.666;9.150;2022-12-29T00:19:27;4.47;;;2.30;;
41693;SDS011;27377;50.666;9.150;2022-12-29T00:22:12;5.32;;;2.50;;
41693;SDS011;27377;50.666;9.150;2022-12-29T00:24:57;6.70;;;2.35;;
41693;SDS011;27377;50.666;9.150;2022-12-29T00:27:42;5.60;;;2.40;;
41693;SDS011;27377;50.666;9.150;2022-12-29T00:30:26;5.72;;;2.60;;
41693;SDS011;27377;50.666;9.150;2022-12-29T00:33:17;6.38;;;2.50;;
41693;SDS011;27377;50.666;9.150;2022-12-29T00:38:32;4.57;;;2.22;;
41693;SDS011;27377;50.666;9.150;2022-12-29T00:41:21;5.50;;;2.40;;
41693;SDS011;27377;50.666;9.150;2022-12-29T00:44:05;5.32;;;2.30;;
41693;SDS011;27377;50.666;9.150;2022-12-29T00:46:32;4.60;;;2.10;;
41693;SDS011;27377;50.666;9.150;2022-12-29T00:48:59;4.95;;;2.40;;
41693;SDS011;27377;50.666;9.150;2022-12-29T00:51:44;4.10;;;2.30;;
41693;SDS011;27377;50.666;9.150;2022-12-29T00:54:10;5.03;;;2.38;;
41693;SDS011;27377;50.666;9.150;2022-12-29T00:56:36;5.88;;;2.40;;
41693;SDS011;27377;50.666;9.150;2022-12-29T00:59:02;5.87;;;2.33;;
41693;SDS011;27377;50.666;9.150;2022-12-29T01:01:29;4.82;;;2.33;;
41693;SDS011;27377;50.666;9.150;2022-12-29T01:03:55;5.97;;;2.47;;
41693;SDS011;27377;50.666;9.150;2022-12-29T01:06:20;5.30;;;2.47;;
41693;SDS011;27377;50.666;9.150;2022-12-29T01:08:46;17.27;;;2.80;;
41693;SDS011;27377;50.666;9.150;2022-12-29T01:11:31;5.60;;;2.30;;
41693;SDS011;27377;50.666;9.150;2022-12-29T01:13:57;5.93;;;2.40;;
41693;SDS011;27377;50.666;9.150;2022-12-29T01:16:22;5.87;;;2.50;;
41693;SDS011;27377;50.666;9.150;2022-12-29T01:18:48;6.50;;;2.47;;
41693;SDS011;27377;50.666;9.150;2022-12-29T01:21:13;6.60;;;2.37;;
41693;SDS011;27377;50.666;9.150;2022-12-29T01:23:39;5.50;;;2.30;;
41693;SDS011;27377;50.666;9.150;2022-12-29T01:26:11;5.17;;;2.50;;
41693;SDS011;27377;50.666;9.150;2022-12-29T01:28:37;5.05;;;2.30;;
41693;SDS011;27377;50.666;9.150;2022-12-29T01:31:10;4.93;;;2.30;;
41693;SDS011;27377;50.666;9.150;2022-12-29T01:33:36;6.00;;;2.33;;
41693;SDS011;27377;50.666;9.150;2022-12-29T01:36:07;4.53;;;2.30;;
41693;SDS011;27377;50.666;9.150;2022-12-29T01:38:35;6.20;;;2.50;;
41693;SDS011;27377;50.666;9.150;2022-12-29T01:41:02;5.07;;;2.15;;
41693;SDS011;27377;50.666;9.150;2022-12-29T01:43:51;4.90;;;2.10;;
41693;SDS011;27377;50.666;9.150;2022-12-29T01:46:23;5.00;;;2.47;;
41693;SDS011;27377;50.666;9.150;2022-12-29T01:51:34;4.35;;;2.25;;
41693;SDS011;27377;50.666;9.150;2022-12-29T01:54:11;6.38;;;2.42;;
41693;SDS011;27377;50.666;9.150;2022-12-29T01:56:42;4.68;;;2.40;;
41693;SDS011;27377;50.666;9.150;2022-12-29T01:59:10;5.07;;;2.70;;
41693;SDS011;27377;50.666;9.150;2022-12-29T02:01:40;6.45;;;2.50;;
41693;SDS011;27377;50.666;9.150;2022-12-29T02:04:06;4.85;;;2.38;;
41693;SDS011;27377;50.666;9.150;2022-12-29T02:06:41;5.80;;;2.40;;
41693;SDS011;27377;50.666;9.150;2022-12-29T02:09:16;4.00;;;2.30;;
41693;SDS011;27377;50.666;9.150;2022-12-29T02:11:41;5.00;;;2.40;;
41693;SDS011;27377;50.666;9.150;2022-12-29T02:14:10;5.70;;;2.30;;
41693;SDS011;27377;50.666;9.150;2022-12-29T02:21:57;4.22;;;2.30;;
41693;SDS011;27377;50.666;9.150;2022-12-29T02:28:02;6.07;;;2.40;;
41693;SDS011;27377;50.666;9.150;2022-12-29T02:30:59;5.45;;;2.25;;
41693;SDS011;27377;50.666;9.150;2022-12-29T02:39:07;5.75;;;2.05;;
41693;SDS011;27377;50.666;9.150;2022-12-29T02:47:11;5.07;;;2.20;;
41693;SDS011;27377;50.666;9.150;2022-12-29T02:52:35;4.60;;;2.05;;
41693;SDS011;27377;50.666;9.150;2022-12-29T02:55:05;4.03;;;1.90;;
41693;SDS011;27377;50.666;9.150;2022-12-29T02:57:35;5.05;;;1.80;;
41693;SDS011;27377;50.666;9.150;2022-12-29T03:11:13;3.80;;;1.80;;
41693;SDS011;27377;50.666;9.150;2022-12-29T03:14:02;3.70;;;1.80;;
41693;SDS011;27377;50.666;9.150;2022-12-29T03:17:07;4.90;;;1.90;;
41693;SDS011;27377;50.666;9.150;2022-12-29T03:19:43;3.80;;;1.90;;
41693;SDS011;27377;50.666;9.150;2022-12-29T03:22:12;4.47;;;1.65;;
41693;SDS011;27377;50.666;9.150;2022-12-29T03:25:03;4.47;;;1.70;;
41693;SDS011;27377;50.666;9.150;2022-12-29T03:27:52;4.27;;;1.90;;
41693;SDS011;27377;50.666;9.150;2022-12-29T03:30:21;5.45;;;1.70;;
41693;SDS011;27377;50.666;9.150;2022-12-29T03:32:55;4.00;;;1.80;;
41693;SDS011;27377;50.666;9.150;2022-12-29T03:35:26;3.97;;;1.67;;
41693;SDS011;27377;50.666;9.150;2022-12-29T03:37:58;3.63;;;1.75;;
41693;SDS011;27377;50.666;9.150;2022-12-29T03:40:31;3.47;;;1.67;;
41693;SDS011;27377;50.666;9.150;2022-12-29T03:42:58;4.13;;;1.60;;
41693;SDS011;27377;50.666;9.150;2022-12-29T03:45:24;3.47;;;1.60;;
41693;SDS011;27377;50.666;9.150;2022-12-29T03:47:50;3.60;;;1.90;;
41693;SDS011;27377;50.666;9.150;2022-12-29T03:50:17;4.63;;;1.80;;
41693;SDS011;27377;50.666;9.150;2022-12-29T03:52:43;4.33;;;1.80;;
41693;SDS011;27377;50.666;9.150;2022-12-29T03:55:09;4.23;;;1.87;;
41693;SDS011;27377;50.666;9.150;2022-12-29T03:57:34;5.63;;;1.77;;
41693;SDS011;27377;50.666;9.150;2022-12-29T04:00:00;3.53;;;1.63;;
41693;SDS011;27377;50.666;9.150;2022-12-29T04:02:25;5.43;;;1.87;;
41693;SDS011;27377;50.666;9.150;2022-12-29T04:04:51;3.07;;;1.80;;
41693;SDS011;27377;50.666;9.150;2022-12-29T04:07:16;4.83;;;1.60;;
41693;SDS011;27377;50.666;9.150;2022-12-29T04:09:42;5.33;;;1.50;;
41693;SDS011;27377;50.666;9.150;2022-12-29T04:12:07;4.63;;;1.50;;
41693;SDS011;27377;50.666;9.150;2022-12-29T04:14:33;3.57;;;1.40;;
41693;SDS011;27377;50.666;9.150;2022-12-29T04:16:58;3.13;;;1.40;;
41693;SDS011;27377;50.666;9.150;2022-12-29T04:19:24;4.50;;;1.50;;
41693;SDS011;27377;50.666;9.150;2022-12-29T04:21:50;3.30;;;1.40;;
41693;SDS011;27377;50.666;9.150;2022-12-29T04:24:15;3.40;;;1.20;;
41693;SDS011;27377;50.666;9.150;2022-12-29T04:26:41;3.67;;;1.25;;
41693;SDS011;27377;50.666;9.150;2022-12-29T04:29:07;1.70;;;0.98;;
41693;SDS011;27377;50.666;9.150;2022-12-29T04:31:32;3.15;;;1.10;;
41693;SDS011;27377;50.666;9.150;2022-12-29T04:33:58;2.65;;;1.10;;
41693;SDS011;27377;50.666;9.150;2022-12-29T04:36:25;2.92;;;1.30;;
41693;SDS011;27377;50.666;9.150;2022-12-29T04:38:50;2.50;;;1.20;;
41693;SDS011;27377;50.666;9.150;2022-12-29T04:41:16;2.40;;;1.27;;
41693;SDS011;27377;50.666;9.150;2022-12-29T04:43:41;3.77;;;1.20;;
41693;SDS011;27377;50.666;9.150;2022-12-29T04:46:07;2.80;;;1.30;;
41693;SDS011;27377;50.666;9.150;2022-12-29T04:48:32;3.00;;;1.30;;
41693;SDS011;27377;50.666;9.150;2022-12-29T04:50:58;3.00;;;1.17;;
41693;SDS011;27377;50.666;9.150;2022-12-29T04:53:24;3.17;;;1.40;;
41693;SDS011;27377;50.666;9.150;2022-12-29T04:55:50;3.67;;;1.23;;
41693;SDS011;27377;50.666;9.150;2022-12-29T04:58:16;3.58;;;1.30;;
41693;SDS011;27377;50.666;9.150;2022-12-29T05:00:43;3.90;;;1.40;;
41693;SDS011;27377;50.666;9.150;2022-12-29T05:03:08;3.83;;;1.40;;
41693;SDS011;27377;50.666;9.150;2022-12-29T05:05:34;2.90;;;1.33;;
41693;SDS011;27377;50.666;9.150;2022-12-29T05:07:59;4.80;;;1.57;;
41693;SDS011;27377;50.666;9.150;2022-12-29T05:10:25;3.90;;;1.30;;
41693;SDS011;27377;50.666;9.150;2022-12-29T05:12:51;3.50;;;1.37;;
41693;SDS011;27377;50.666;9.150;2022-12-29T05:15:16;4.13;;;1.30;;
41693;SDS011;27377;50.666;9.150;2022-12-29T05:17:42;3.15;;;1.33;;
41693;SDS011;27377;50.666;9.150;2022-12-29T05:20:08;5.32;;;1.50;;
41693;SDS011;27377;50.666;9.150;2022-12-29T05:22:36;4.00;;;1.25;;
41693;SDS011;27377;50.666;9.150;2022-12-29T05:25:02;3.97;;;1.40;;
41693;SDS011;27377;50.666;9.150;2022-12-29T05:27:28;2.70;;;1.30;;
41693;SDS011;27377;50.666;9.150;2022-12-29T05:29:53;5.23;;;1.50;;
41693;SDS011;27377;50.666;9.150;2022-12-29T05:32:19;3.47;;;1.40;;
41693;SDS011;27377;50.666;9.150;2022-12-29T05:34:44;3.33;;;1.37;;
41693;SDS011;27377;50.666;9.150;2022-12-29T05:37:10;5.40;;;1.80;;
41693;SDS011;27377;50.666;9.150;2022-12-29T05:39:36;3.73;;;1.43;;
41693;SDS011;27377;50.666;9.150;2022-12-29T05:42:01;4.97;;;1.37;;
41693;SDS011;27377;50.666;9.150;2022-12-29T05:44:27;4.68;;;1.50;;
41693;SDS011;27377;50.666;9.150;2022-12-29T05:46:52;4.40;;;1.60;;
41693;SDS011;27377;50.666;9.150;2022-12-29T05:49:18;4.32;;;1.50;;
41693;SDS011;27377;50.666;9.150;2022-12-29T05:51:44;4.68;;;1.50;;
41693;SDS011;27377;50.666;9.150;2022-12-29T05:54:09;3.92;;;1.60;;
41693;SDS011;27377;50.666;9.150;2022-12-29T05:56:35;3.80;;;1.58;;
41693;SDS011;27377;50.666;9.150;2022-12-29T05:59:00;4.35;;;1.50;;
41693;SDS011;27377;50.666;9.150;2022-12-29T06:01:26;4.63;;;1.83;;
41693;SDS011;27377;50.666;9.150;2022-12-29T06:03:51;4.97;;;1.70;;
41693;SDS011;27377;50.666;9.150;2022-12-29T06:06:17;5.50;;;1.87;;
41693;SDS011;27377;50.666;9.150;2022-12-29T06:08:42;4.97;;;1.70;;
41693;SDS011;27377;50.666;9.150;2022-12-29T06:11:08;3.63;;;1.40;;
41693;SDS011;27377;50.666;9.150;2022-12-29T06:13:34;4.63;;;1.40;;
41693;SDS011;27377;50.666;9.150;2022-12-29T06:15:59;3.72;;;1.45;;
41693;SDS011;27377;50.666;9.150;2022-12-29T06:18:25;4.40;;;1.48;;
41693;SDS011;27377;50.666;9.150;2022-12-29T06:20:50;5.50;;;1.30;;
41693;SDS011;27377;50.666;9.150;2022-12-29T06:23:16;5.65;;;1.58;;
41693;SDS011;27377;50.666;9.150;2022-12-29T06:25:43;3.78;;;1.20;;
41693;SDS011;27377;50.666;9.150;2022-12-29T06:28:08;2.93;;;1.13;;
41693;SDS011;27377;50.666;9.150;2022-12-29T06:30:35;3.20;;;1.40;;
41693;SDS011;27377;50.666;9.150;2022-12-29T06:33:01;4.40;;;1.40;;
41693;SDS011;27377;50.666;9.150;2022-12-29T06:35:27;2.22;;;0.95;;
41693;SDS011;27377;50.666;9.150;2022-12-29T06:37:52;4.45;;;1.35;;
41693;SDS011;27377;50.666;9.150;2022-12-29T06:40:18;3.35;;;1.23;;
41693;SDS011;27377;50.666;9.150;2022-12-29T06:42:44;2.70;;;1.20;;
41693;SDS011;27377;50.666;9.150;2022-12-29T06:45:09;2.25;;;1.10;;
41693;SDS011;27377;50.666;9.150;2022-12-29T06:47:35;2.67;;;1.30;;
41693;SDS011;27377;50.666;9.150;2022-12-29T06:50:01;4.65;;;1.50;;
41693;SDS011;27377;50.666;9.150;2022-12-29T06:52:26;3.25;;;1.35;;
41693;SDS011;27377;50.666;9.150;2022-12-29T06:54:53;3.42;;;1.42;;
41693;SDS011;27377;50.666;9.150;2022-12-29T06:57:19;4.57;;;1.30;;
41693;SDS011;27377;50.666;9.150;2022-12-29T06:59:45;3.53;;;1.45;;
41693;SDS011;27377;50.666;9.150;2022-12-29T07:02:11;3.00;;;1.30;;
41693;SDS011;27377;50.666;9.150;2022-12-29T07:04:36;4.40;;;1.40;;
41693;SDS011;27377;50.666;9.150;2022-12-29T07:07:02;4.03;;;1.40;;
41693;SDS011;27377;50.666;9.150;2022-12-29T07:09:27;3.17;;;1.30;;
41693;SDS011;27377;50.666;9.150;2022-12-29T07:11:53;4.13;;;1.20;;
41693;SDS011;27377;50.666;9.150;2022-12-29T07:14:18;3.10;;;1.33;;
41693;SDS011;27377;50.666;9.150;2022-12-29T07:16:44;4.00;;;1.50;;
41693;SDS011;27377;50.666;9.150;2022-12-29T07:19:10;2.77;;;1.40;;
41693;SDS011;27377;50.666;9.150;2022-12-29T07:21:39;3.08;;;1.27;;
41693;SDS011;27377;50.666;9.150;2022-12-29T07:24:04;4.10;;;1.45;;
41693;SDS011;27377;50.666;9.150;2022-12-29T07:26:30;4.20;;;1.60;;
41693;SDS011;27377;50.666;9.150;2022-12-29T07:28:56;4.40;;;1.60;;
41693;SDS011;27377;50.666;9.150;2022-12-29T07:31:22;3.77;;;1.63;;
41693;SDS011;27377;50.666;9.150;2022-12-29T07:33:47;4.60;;;1.70;;
41693;SDS011;27377;50.666;9.150;2022-12-29T07:36:14;4.03;;;1.70;;
41693;SDS011;27377;50.666;9.150;2022-12-29T07:38:41;5.18;;;1.85;;
41693;SDS011;27377;50.666;9.150;2022-12-29T07:41:07;3.85;;;1.77;;
41693;SDS011;27377;50.666;9.150;2022-12-29T07:43:33;5.10;;;1.60;;
41693;SDS011;27377;50.666;9.150;2022-12-29T07:45:59;3.85;;;1.75;;
41693;SDS011;27377;50.666;9.150;2022-12-29T07:48:24;5.05;;;1.95;;
41693;SDS011;27377;50.666;9.150;2022-12-29T07:50:53;4.43;;;1.70;;
41693;SDS011;27377;50.666;9.150;2022-12-29T07:53:18;4.50;;;1.80;;
41693;SDS011;27377;50.666;9.150;2022-12-29T07:55:44;3.67;;;1.60;;
41693;SDS011;27377;50.666;9.150;2022-12-29T07:58:13;5.13;;;1.67;;
41693;SDS011;27377;50.666;9.150;2022-12-29T08:00:39;3.90;;;1.70;;
41693;SDS011;27377;50.666;9.150;2022-12-29T08:03:04;2.60;;;1.52;;
41693;SDS011;27377;50.666;9.150;2022-12-29T08:05:33;2.78;;;1.40;;
41693;SDS011;27377;50.666;9.150;2022-12-29T08:07:59;4.90;;;1.73;;
41693;SDS011;27377;50.666;9.150;2022-12-29T08:10:24;6.47;;;1.85;;
41693;SDS011;27377;50.666;9.150;2022-12-29T08:12:50;4.83;;;1.70;;
41693;SDS011;27377;50.666;9.150;2022-12-29T08:15:15;4.85;;;1.80;;
41693;SDS011;27377;50.666;9.150;2022-12-29T08:17:41;4.90;;;1.80;;
41693;SDS011;27377;50.666;9.150;2022-12-29T08:20:07;5.70;;;2.00;;
41693;SDS011;27377;50.666;9.150;2022-12-29T08:22:33;7.30;;;1.95;;
41693;SDS011;27377;50.666;9.150;2022-12-29T08:24:59;4.60;;;2.00;;
41693;SDS011;27377;50.666;9.150;2022-12-29T08:27:25;3.47;;;1.70;;
41693;SDS011;27377;50.666;9.150;2022-12-29T08:29:51;4.72;;;2.00;;
41693;SDS011;27377;50.666;9.150;2022-12-29T08:32:17;5.35;;;1.90;;
41693;SDS011;27377;50.666;9.150;2022-12-29T08:34:45;6.83;;;1.93;;
41693;SDS011;27377;50.666;9.150;2022-12-29T08:37:11;5.82;;;2.08;;
41693;SDS011;27377;50.666;9.150;2022-12-29T08:39:36;6.83;;;2.20;;
41693;SDS011;27377;50.666;9.150;2022-12-29T08:42:02;5.00;;;2.40;;
41693;SDS011;27377;50.666;9.150;2022-12-29T08:44:28;4.23;;;2.10;;
41693;SDS011;27377;50.666;9.150;2022-12-29T08:46:53;6.60;;;2.37;;
41693;SDS011;27377;50.666;9.150;2022-12-29T08:49:19;5.33;;;2.10;;
41693;SDS011;27377;50.666;9.150;2022-12-29T08:51:44;6.50;;;2.23;;
41693;SDS011;27377;50.666;9.150;2022-12-29T08:54:10;5.17;;;2.10;;
41693;SDS011;27377;50.666;9.150;2022-12-29T08:56:36;4.80;;;2.10;;
41693;SDS011;27377;50.666;9.150;2022-12-29T08:59:01;5.33;;;2.00;;
41693;SDS011;27377;50.666;9.150;2022-12-29T09:01:27;4.82;;;1.95;;
41693;SDS011;27377;50.666;9.150;2022-12-29T09:03:53;6.70;;;2.35;;
41693;SDS011;27377;50.666;9.150;2022-12-29T09:06:22;4.22;;;2.10;;
41693;SDS011;27377;50.666;9.150;2022-12-29T09:08:47;4.40;;;1.90;;
41693;SDS011;27377;50.666;9.150;2022-12-29T09:11:17;5.17;;;2.20;;
41693;SDS011;27377;50.666;9.150;2022-12-29T09:13:45;6.95;;;2.30;;
41693;SDS011;27377;50.666;9.150;2022-12-29T09:16:11;6.25;;;2.33;;
41693;SDS011;27377;50.666;9.150;2022-12-29T09:18:39;5.95;;;2.28;;
41693;SDS011;27377;50.666;9.150;2022-12-29T09:21:05;6.95;;;2.30;;
41693;SDS011;27377;50.666;9.150;2022-12-29T09:23:32;5.87;;;2.77;;
41693;SDS011;27377;50.666;9.150;2022-12-29T09:25:58;5.40;;;2.60;;
41693;SDS011;27377;50.666;9.150;2022-12-29T09:28:24;5.47;;;2.30;;
41693;SDS011;27377;50.666;9.150;2022-12-29T09:30:50;7.32;;;2.80;;
41693;SDS011;27377;50.666;9.150;2022-12-29T09:33:16;6.57;;;2.50;;
41693;SDS011;27377;50.666;9.150;2022-12-29T09:35:42;5.93;;;2.90;;
41693;SDS011;27377;50.666;9.150;2022-12-29T09:38:09;4.97;;;2.40;;
41693;SDS011;27377;50.666;9.150;2022-12-29T09:40:35;5.83;;;2.70;;
41693;SDS011;27377;50.666;9.150;2022-12-29T09:49:07;8.53;;;2.87;;
41693;SDS011;27377;50.666;9.150;2022-12-29T09:51:53;6.35;;;2.60;;
41693;SDS011;27377;50.666;9.150;2022-12-29T09:54:39;7.30;;;2.90;;
41693;SDS011;27377;50.666;9.150;2022-12-29T09:58:05;6.03;;;2.80;;
41693;SDS011;27377;50.666;9.150;2022-12-29T10:00:14;6.40;;;3.00;;
41693;SDS011;27377;50.666;9.150;2022-12-29T10:02:49;5.85;;;2.78;;
41693;SDS011;27377;50.666;9.150;2022-12-29T10:11:16;6.70;;;2.70;;
41693;SDS011;27377;50.666;9.150;2022-12-29T10:16:29;6.10;;;2.90;;
41693;SDS011;27377;50.666;9.150;2022-12-29T10:19:24;7.88;;;3.10;;
41693;SDS011;27377;50.666;9.150;2022-12-29T10:24:39;4.40;;;2.70;;
41693;SDS011;27377;50.666;9.150;2022-12-29T10:27:08;5.53;;;2.63;;
41693;SDS011;27377;50.666;9.150;2022-12-29T10:29:37;6.20;;;2.78;;
41693;SDS011;27377;50.666;9.150;2022-12-29T10:32:21;6.27;;;3.00;;
41693;SDS011;27377;50.666;9.150;2022-12-29T10:35:03;4.95;;;2.90;;
41693;SDS011;27377;50.666;9.150;2022-12-29T10:37:49;6.55;;;3.13;;
41693;SDS011;27377;50.666;9.150;2022-12-29T10:40:40;5.22;;;2.90;;
41693;SDS011;27377;50.666;9.150;2022-12-29T10:43:26;5.70;;;2.90;;
41693;SDS011;27377;50.666;9.150;2022-12-29T10:46:04;6.13;;;3.17;;
41693;SDS011;27377;50.666;9.150;2022-12-29T10:48:34;7.13;;;3.38;;
41693;SDS011;27377;50.666;9.150;2022-12-29T10:51:04;5.22;;;2.80;;
41693;SDS011;27377;50.666;9.150;2022-12-29T10:53:35;6.35;;;3.15;;
41693;SDS011;27377;50.666;9.150;2022-12-29T10:56:09;4.93;;;3.03;;
41693;SDS011;27377;50.666;9.150;2022-12-29T10:59:27;7.05;;;2.90;;
41693;SDS011;27377;50.666;9.150;2022-12-29T11:04:48;5.63;;;2.80;;
41693;SDS011;27377;50.666;9.150;2022-12-29T11:07:19;7.72;;;2.97;;
41693;SDS011;27377;50.666;9.150;2022-12-29T11:09:46;6.13;;;2.90;;
41693;SDS011;27377;50.666;9.150;2022-12-29T11:12:19;7.10;;;2.85;;
41693;SDS011;27377;50.666;9.150;2022-12-29T11:14:45;5.60;;;2.78;;
41693;SDS011;27377;50.666;9.150;2022-12-29T11:17:14;4.63;;;2.33;;
41693;SDS011;27377;50.666;9.150;2022-12-29T11:19:42;5.05;;;2.67;;
41693;SDS011;27377;50.666;9.150;2022-12-29T11:22:13;4.82;;;2.40;;
41693;SDS011;27377;50.666;9.150;2022-12-29T11:24:51;5.78;;;2.53;;
41693;SDS011;27377;50.666;9.150;2022-12-29T11:27:26;5.65;;;2.80;;
41693;SDS011;27377;50.666;9.150;2022-12-29T11:29:53;4.38;;;2.13;;
41693;SDS011;27377;50.666;9.150;2022-12-29T11:32:28;4.57;;;1.92;;
41693;SDS011;27377;50.666;9.150;2022-12-29T11:34:55;4.22;;;1.90;;
41693;SDS011;27377;50.666;9.150;2022-12-29T11:40:03;4.18;;;1.65;;
41693;SDS011;27377;50.666;9.150;2022-12-29T11:42:36;4.30;;;1.65;;
41693;SDS011;27377;50.666;9.150;2022-12-29T11:45:15;3.13;;;1.60;;
41693;SDS011;27377;50.666;9.150;2022-12-29T11:47:42;3.80;;;1.80;;
41693;SDS011;27377;50.666;9.150;2022-12-29T11:50:16;3.88;;;1.30;;
41693;SDS011;27377;50.666;9.150;2022-12-29T11:52:45;3.70;;;1.17;;
41693;SDS011;27377;50.666;9.150;2022-12-29T11:55:20;2.30;;;0.90;;
41693;SDS011;27377;50.666;9.150;2022-12-29T11:57:49;3.20;;;1.13;;
41693;SDS011;27377;50.666;9.150;2022-12-29T12:00:18;1.98;;;1.00;;
41693;SDS011;27377;50.666;9.150;2022-12-29T12:03:04;3.10;;;1.05;;
41693;SDS011;27377;50.666;9.150;2022-12-29T12:05:46;2.40;;;1.00;;
41693;SDS011;27377;50.666;9.150;2022-12-29T12:16:43;2.97;;;0.90;;
41693;SDS011;27377;50.666;9.150;2022-12-29T12:21:50;2.10;;;0.80;;
41693;SDS011;27377;50.666;9.150;2022-12-29T12:35:37;3.10;;;0.90;;
41693;SDS011;27377;50.666;9.150;2022-12-29T12:43:34;6.50;;;1.30;;
41693;SDS011;27377;50.666;9.150;2022-12-29T12:46:27;4.15;;;1.20;;
41693;SDS011;27377;50.666;9.150;2022-12-29T12:49:24;3.63;;;1.35;;
41693;SDS011;27377;50.666;9.150;2022-12-29T12:54:58;5.07;;;1.25;;
41693;SDS011;27377;50.666;9.150;2022-12-29T12:58:08;3.95;;;1.13;;
41693;SDS011;27377;50.666;9.150;2022-12-29T13:12:29;5.07;;;0.90;;
41693;SDS011;27377;50.666;9.150;2022-12-29T13:18:06;3.53;;;0.80;;
41693;SDS011;27377;50.666;9.150;2022-12-29T13:20:39;4.05;;;0.80;;
41693;SDS011;27377;50.666;9.150;2022-12-29T13:23:48;5.07;;;0.90;;
41693;SDS011;27377;50.666;9.150;2022-12-29T13:31:46;4.25;;;0.93;;
41693;SDS011;27377;50.666;9.150;2022-12-29T13:37:18;4.28;;;0.90;;
41693;SDS011;27377;50.666;9.150;2022-12-29T13:39:51;5.67;;;0.90;;
41693;SDS011;27377;50.666;9.150;2022-12-29T13:42:19;4.80;;;0.98;;
41693;SDS011;27377;50.666;9.150;2022-12-29T13:44:53;4.60;;;1.00;;
41693;SDS011;27377;50.666;9.150;2022-12-29T13:49:59;7.07;;;1.00;;
41693;SDS011;27377;50.666;9.150;2022-12-29T13:52:43;5.05;;;0.90;;
41693;SDS011;27377;50.666;9.150;2022-12-29T13:58:14;4.15;;;0.93;;
41693;SDS011;27377;50.666;9.150;2022-12-29T14:01:00;4.57;;;0.90;;
41693;SDS011;27377;50.666;9.150;2022-12-29T14:08:45;5.40;;;1.17;;
41693;SDS011;27377;50.666;9.150;2022-12-29T14:11:14;5.50;;;1.20;;
41693;SDS011;27377;50.666;9.150;2022-12-29T14:13:42;4.75;;;1.00;;
41693;SDS011;27377;50.666;9.150;2022-12-29T14:16:21;4.30;;;1.10;;
41693;SDS011;27377;50.666;9.150;2022-12-29T14:18:53;7.00;;;1.30;;
41693;SDS011;27377;50.666;9.150;2022-12-29T14:21:22;5.28;;;0.90;;
41693;SDS011;27377;50.666;9.150;2022-12-29T14:23:53;4.50;;;0.85;;
41693;SDS011;27377;50.666;9.150;2022-12-29T14:29:16;3.67;;;1.00;;
41693;SDS011;27377;50.666;9.150;2022-12-29T14:34:50;4.75;;;0.90;;
41693;SDS011;27377;50.666;9.150;2022-12-29T14:42:48;4.30;;;1.08;;
41693;SDS011;27377;50.666;9.150;2022-12-29T14:52:54;5.95;;;1.27;;
41693;SDS011;27377;50.666;9.150;2022-12-29T14:55:38;5.40;;;1.23;;
41693;SDS011;27377;50.666;9.150;2022-12-29T14:58:13;5.20;;;1.13;;
41693;SDS011;27377;50.666;9.150;2022-12-29T15:00:40;5.55;;;1.27;;
41693;SDS011;27377;50.666;9.150;2022-12-29T15:08:32;5.38;;;1.10;;
41693;SDS011;27377;50.666;9.150;2022-12-29T15:11:13;6.60;;;1.20;;
41693;SDS011;27377;50.666;9.150;2022-12-29T15:13:43;5.20;;;1.10;;
41693;SDS011;27377;50.666;9.150;2022-12-29T15:16:23;5.18;;;1.08;;
41693;SDS011;27377;50.666;9.150;2022-12-29T15:18:56;6.45;;;1.42;;
41693;SDS011;27377;50.666;9.150;2022-12-29T15:21:23;5.00;;;1.05;;
41693;SDS011;27377;50.666;9.150;2022-12-29T15:23:54;4.65;;;1.02;;
41693;SDS011;27377;50.666;9.150;2022-12-29T15:26:21;4.70;;;1.10;;
41693;SDS011;27377;50.666;9.150;2022-12-29T15:28:48;6.45;;;1.20;;
41693;SDS011;27377;50.666;9.150;2022-12-29T15:31:24;5.43;;;1.20;;
41693;SDS011;27377;50.666;9.150;2022-12-29T15:33:51;6.93;;;1.48;;
41693;SDS011;27377;50.666;9.150;2022-12-29T15:36:20;7.70;;;1.10;;
41693;SDS011;27377;50.666;9.150;2022-12-29T15:38:47;5.38;;;1.15;;
41693;SDS011;27377;50.666;9.150;2022-12-29T15:43:58;6.47;;;1.30;;
41693;SDS011;27377;50.666;9.150;2022-12-29T15:46:39;6.15;;;1.20;;
41693;SDS011;27377;50.666;9.150;2022-12-29T15:49:06;6.82;;;1.50;;
41693;SDS011;27377;50.666;9.150;2022-12-29T15:51:34;6.15;;;1.13;;
41693;SDS011;27377;50.666;9.150;2022-12-29T15:54:03;6.28;;;1.23;;
41693;SDS011;27377;50.666;9.150;2022-12-29T15:56:29;7.70;;;1.33;;
41693;SDS011;27377;50.666;9.150;2022-12-29T15:58:56;5.35;;;1.15;;
41693;SDS011;27377;50.666;9.150;2022-12-29T16:03:57;6.72;;;1.30;;
41693;SDS011;27377;50.666;9.150;2022-12-29T16:06:34;4.37;;;1.00;;
41693;SDS011;27377;50.666;9.150;2022-12-29T16:09:05;4.55;;;1.10;;
41693;SDS011;27377;50.666;9.150;2022-12-29T16:11:40;5.72;;;1.35;;
41693;SDS011;27377;50.666;9.150;2022-12-29T16:14:12;6.93;;;1.55;;
41693;SDS011;27377;50.666;9.150;2022-12-29T16:16:42;5.35;;;1.40;;
41693;SDS011;27377;50.666;9.150;2022-12-29T16:19:12;5.47;;;1.23;;
41693;SDS011;27377;50.666;9.150;2022-12-29T16:21:40;6.43;;;1.37;;
41693;SDS011;27377;50.666;9.150;2022-12-29T16:24:14;7.13;;;1.60;;
41693;SDS011;27377;50.666;9.150;2022-12-29T16:26:49;6.45;;;1.33;;
41693;SDS011;27377;50.666;9.150;2022-12-29T16:29:19;6.53;;;1.40;;
41693;SDS011;27377;50.666;9.150;2022-12-29T16:34:23;7.20;;;1.80;;
41693;SDS011;27377;50.666;9.150;2022-12-29T16:36:55;8.52;;;1.98;;
41693;SDS011;27377;50.666;9.150;2022-12-29T16:39:38;6.40;;;1.45;;
41693;SDS011;27377;50.666;9.150;2022-12-29T16:50:36;5.00;;;1.57;;
41693;SDS011;27377;50.666;9.150;2022-12-29T16:53:03;8.15;;;1.55;;
41693;SDS011;27377;50.666;9.150;2022-12-29T16:55:30;5.90;;;1.27;;
41693;SDS011;27377;50.666;9.150;2022-12-29T16:57:56;6.97;;;1.40;;
41693;SDS011;27377;50.666;9.150;2022-12-29T17:00:24;6.87;;;1.63;;
41693;SDS011;27377;50.666;9.150;2022-12-29T17:02:53;7.85;;;1.70;;
41693;SDS011;27377;50.666;9.150;2022-12-29T17:05:23;6.85;;;1.63;;
41693;SDS011;27377;50.666;9.150;2022-12-29T17:07:48;7.32;;;1.70;;
41693;SDS011;27377;50.666;9.150;2022-12-29T17:10:16;6.45;;;1.60;;
41693;SDS011;27377;50.666;9.150;2022-12-29T17:12:45;4.43;;;1.27;;
41693;SDS011;27377;50.666;9.150;2022-12-29T17:15:26;6.78;;;1.50;;
41693;SDS011;27377;50.666;9.150;2022-12-29T17:17:59;6.63;;;1.50;;
41693;SDS011;27377;50.666;9.150;2022-12-29T17:20:26;6.70;;;1.35;;
41693;SDS011;27377;50.666;9.150;2022-12-29T17:22:53;5.97;;;1.50;;
41693;SDS011;27377;50.666;9.150;2022-12-29T17:25:29;7.93;;;1.77;;
41693;SDS011;27377;50.666;9.150;2022-12-29T17:28:01;7.85;;;1.70;;
41693;SDS011;27377;50.666;9.150;2022-12-29T17:30:31;6.23;;;1.40;;
41693;SDS011;27377;50.666;9.150;2022-12-29T17:32:59;6.53;;;2.00;;
41693;SDS011;27377;50.666;9.150;2022-12-29T17:35:28;6.65;;;1.77;;
41693;SDS011;27377;50.666;9.150;2022-12-29T17:37:53;6.60;;;2.00;;
41693;SDS011;27377;50.666;9.150;2022-12-29T17:40:20;7.30;;;1.80;;
41693;SDS011;27377;50.666;9.150;2022-12-29T17:42:49;4.78;;;1.50;;
41693;SDS011;27377;50.666;9.150;2022-12-29T17:45:22;7.35;;;2.17;;
41693;SDS011;27377;50.666;9.150;2022-12-29T17:47:49;6.80;;;1.88;;
41693;SDS011;27377;50.666;9.150;2022-12-29T17:50:15;7.93;;;1.80;;
41693;SDS011;27377;50.666;9.150;2022-12-29T17:53:29;6.35;;;1.80;;
41693;SDS011;27377;50.666;9.150;2022-12-29T17:55:38;5.75;;;1.67;;